< < Back
Terminal Aerodrome Forecast


Current Version              Previous Versions:   1  2  3  4  5  6  7  8  9  

Terminal Aerodrome Forecast

377
FTUS42 KTAE 242320
TAFTLH
TAF
KTLH 242320Z 2500/2524 24004KT P6SM FEW050
     FM252100 19010KT P6SM SCT050=

Latest METAR

623
SAUS80 KWBC 250100
MTRTLH
METAR KTLH 250053Z 12005KT 10SM FEW065 SCT250 31/22 A3003 RMK AO2 SLP167
T03060222


USA.gov is the U.S. government's official web portal to all federal, state and local government web resources and services.